Owensboro, KY

4:35 PM CST on January 16, 2017 (GMT -0600)
Thoroughbred Acres | | Change Station
Active Advisory: Flood Warning

Elev 404 ft 37.75 °N, 87.14 °W | Updated 13 seconds ago

Light Rain
Light Rain
56.8 °F
Feels Like 56.8 °F
N
2.9
Wind Variable Wind from SE
Gusts 4.9 mph

Today
High -- | Low -- °F
--% Chance of Precip.
Yesterday
High -- | Low -- °F
Precip. -- in
Pressure 30.13 in
Visibility 7.0 miles
Clouds Overcast 7500 ft
Dew Point 56 °F
Humidity 96%
Rainfall 0.08 in
Snow Depth Not available.
7:02 AM 4:55 PM
Waning Gibbous, 78% visible
METAR KOWB 162156Z 11007KT 7SM -RA OVC075 13/12 A3008 RMK AO2 SLP202 P0002 T01330122
Pressure 30.13 in
Visibility 7.0 miles
Clouds Overcast 7500 ft
Dew Point 56 °F
Humidity 96%
Rainfall 0.08 in
Snow Depth Not available.
7:02 AM 4:55 PM
Waning Gibbous, 78% visible
METAR KOWB 162156Z 11007KT 7SM -RA OVC075 13/12 A3008 RMK AO2 SLP202 P0002 T01330122

Get Your Daily Forecast Email!

Thanks for signing up!

Be on the lookout for a verification email in your inbox.

You'll start receiving the daily forecast at 8 AM.

×

10-Day Weather Forecast

Almanac

Astronomy

Jan. 16, 2017 Rise Set
Actual Time
Civil Twilight
Nautical Twilight
Astronomical Twilight
Moon
Length of Visible Light
Length of Day
Tomorrow will be .
, % of the Moon is Illuminated

Today's Extremes

State Highs State Lows

Community

WunderPhotos

Upload Photos

1,962,540 photos uploaded!

WunderBlog® & News

Nearby

Air Quality

  Air Quality AQ Index Pollutant
Not available.

Snow Depth

Station Depth Elevation

Earthquake Activity

City Distance Mag. Time & Date
Minimum magnitude displayed is 2.5.

Coastal Water Temperatures

Place Temperature

Stations

Nearby Weather Stations

Station Location Temp. Windchill Dew Point Humidity Wind Precip. Elev Updated Type
                   

Watches & Warnings

Flood Warning
Issued: 10:17 AM CST Jan. 16, 2017 – National Weather Service

The Flood Warning continues for
the Ohio River at Newburgh dam.
* From Wednesday evening to Monday January 23.
* At 10:00 am Monday the stage was 31.2 feet.
* Flood stage is 38.0 feet.
* Minor flooding is forecast.
* Forecast... the river is forecast to rise above flood stage by Wednesday
evening and crest at 39.5 feet on Friday.
* Impact... at 38.0 feet... minor flooding occurs. The river is 2500
feet wide and begins covering agricultural land on the Kentucky
side.


Lat... Lon 3801 8745 3787 8745 3780 8728 3790 8721